sensor_id;sensor_type;location;lat;lon;timestamp;temperature;humidity
49441;DHT22;35317;51.978;6.296;2022-12-29T00:04:37;11.30;99.90
49441;DHT22;35317;51.978;6.296;2022-12-29T00:09:38;11.30;99.90
49441;DHT22;35317;51.978;6.296;2022-12-29T00:14:38;11.30;99.90
49441;DHT22;35317;51.978;6.296;2022-12-29T00:19:57;11.20;99.90
49441;DHT22;35317;51.978;6.296;2022-12-29T00:25:17;11.20;99.90
49441;DHT22;35317;51.978;6.296;2022-12-29T00:30:37;11.20;99.90
49441;DHT22;35317;51.978;6.296;2022-12-29T00:36:18;11.20;99.90
49441;DHT22;35317;51.978;6.296;2022-12-29T00:41:24;11.20;99.90
49441;DHT22;35317;51.978;6.296;2022-12-29T00:46:43;11.20;99.90
49441;DHT22;35317;51.978;6.296;2022-12-29T00:51:45;11.20;99.90
49441;DHT22;35317;51.978;6.296;2022-12-29T00:56:50;11.30;99.90
49441;DHT22;35317;51.978;6.296;2022-12-29T01:01:52;11.30;99.90
49441;DHT22;35317;51.978;6.296;2022-12-29T01:06:54;11.30;99.90
49441;DHT22;35317;51.978;6.296;2022-12-29T01:11:55;11.30;99.90
49441;DHT22;35317;51.978;6.296;2022-12-29T01:16:56;11.30;99.90
49441;DHT22;35317;51.978;6.296;2022-12-29T01:21:57;11.30;99.90
49441;DHT22;35317;51.978;6.296;2022-12-29T01:26:57;11.20;99.90
49441;DHT22;35317;51.978;6.296;2022-12-29T01:31:58;11.20;99.90
49441;DHT22;35317;51.978;6.296;2022-12-29T01:36:59;11.20;99.90
49441;DHT22;35317;51.978;6.296;2022-12-29T01:42:00;11.10;99.90
49441;DHT22;35317;51.978;6.296;2022-12-29T01:47:00;11.10;99.90
49441;DHT22;35317;51.978;6.296;2022-12-29T01:52:06;11.00;99.90
49441;DHT22;35317;51.978;6.296;2022-12-29T01:57:12;11.00;99.90
49441;DHT22;35317;51.978;6.296;2022-12-29T02:02:17;11.00;99.90
49441;DHT22;35317;51.978;6.296;2022-12-29T02:07:20;11.10;99.90
49441;DHT22;35317;51.978;6.296;2022-12-29T02:12:22;11.10;99.90
49441;DHT22;35317;51.978;6.296;2022-12-29T02:29:11;11.30;99.90
49441;DHT22;35317;51.978;6.296;2022-12-29T02:35:05;11.30;99.90
49441;DHT22;35317;51.978;6.296;2022-12-29T02:40:41;11.40;99.90
49441;DHT22;35317;51.978;6.296;2022-12-29T02:46:06;11.40;99.90
49441;DHT22;35317;51.978;6.296;2022-12-29T02:51:20;11.40;99.90
49441;DHT22;35317;51.978;6.296;2022-12-29T02:56:24;11.40;99.90
49441;DHT22;35317;51.978;6.296;2022-12-29T03:01:53;11.50;99.90
49441;DHT22;35317;51.978;6.296;2022-12-29T03:12:41;11.50;99.90
49441;DHT22;35317;51.978;6.296;2022-12-29T03:18:12;11.60;99.90
49441;DHT22;35317;51.978;6.296;2022-12-29T03:23:27;11.60;99.90
49441;DHT22;35317;51.978;6.296;2022-12-29T03:28:40;11.60;99.90
49441;DHT22;35317;51.978;6.296;2022-12-29T03:33:46;11.60;99.90
49441;DHT22;35317;51.978;6.296;2022-12-29T03:38:53;11.50;99.90
49441;DHT22;35317;51.978;6.296;2022-12-29T03:43:59;11.50;99.90
49441;DHT22;35317;51.978;6.296;2022-12-29T03:49:00;11.50;99.90
49441;DHT22;35317;51.978;6.296;2022-12-29T03:54:01;11.50;99.90
49441;DHT22;35317;51.978;6.296;2022-12-29T03:59:02;11.40;99.90
49441;DHT22;35317;51.978;6.296;2022-12-29T04:04:04;11.40;99.90
49441;DHT22;35317;51.978;6.296;2022-12-29T04:09:05;11.50;99.90
49441;DHT22;35317;51.978;6.296;2022-12-29T04:14:05;11.50;99.90
49441;DHT22;35317;51.978;6.296;2022-12-29T04:19:07;11.60;99.90
49441;DHT22;35317;51.978;6.296;2022-12-29T04:24:08;11.60;99.90
49441;DHT22;35317;51.978;6.296;2022-12-29T04:29:08;11.60;99.90
49441;DHT22;35317;51.978;6.296;2022-12-29T04:34:09;11.60;99.90
49441;DHT22;35317;51.978;6.296;2022-12-29T04:39:10;11.60;99.90
49441;DHT22;35317;51.978;6.296;2022-12-29T04:44:11;11.60;99.90
49441;DHT22;35317;51.978;6.296;2022-12-29T04:49:12;11.50;99.90
49441;DHT22;35317;51.978;6.296;2022-12-29T04:54:13;11.60;99.90
49441;DHT22;35317;51.978;6.296;2022-12-29T04:59:14;11.60;99.90
49441;DHT22;35317;51.978;6.296;2022-12-29T05:04:15;11.50;99.90
49441;DHT22;35317;51.978;6.296;2022-12-29T05:09:15;11.40;99.90
49441;DHT22;35317;51.978;6.296;2022-12-29T05:14:22;11.30;99.90
49441;DHT22;35317;51.978;6.296;2022-12-29T05:19:22;11.20;99.90
49441;DHT22;35317;51.978;6.296;2022-12-29T05:24:23;11.10;99.90
49441;DHT22;35317;51.978;6.296;2022-12-29T05:29:24;11.10;99.90
49441;DHT22;35317;51.978;6.296;2022-12-29T05:34:25;11.00;99.90
49441;DHT22;35317;51.978;6.296;2022-12-29T05:39:26;11.00;99.90
49441;DHT22;35317;51.978;6.296;2022-12-29T05:44:27;10.90;99.90
49441;DHT22;35317;51.978;6.296;2022-12-29T05:49:27;10.90;99.90
49441;DHT22;35317;51.978;6.296;2022-12-29T05:54:28;10.80;99.90
49441;DHT22;35317;51.978;6.296;2022-12-29T05:59:29;10.70;99.90
49441;DHT22;35317;51.978;6.296;2022-12-29T06:04:30;10.60;99.90
49441;DHT22;35317;51.978;6.296;2022-12-29T06:09:30;10.40;99.90
49441;DHT22;35317;51.978;6.296;2022-12-29T06:14:31;10.40;99.90
49441;DHT22;35317;51.978;6.296;2022-12-29T06:19:32;10.20;99.90
49441;DHT22;35317;51.978;6.296;2022-12-29T06:24:33;10.20;99.90
49441;DHT22;35317;51.978;6.296;2022-12-29T06:29:34;10.20;99.90
49441;DHT22;35317;51.978;6.296;2022-12-29T06:34:37;10.20;99.90
49441;DHT22;35317;51.978;6.296;2022-12-29T06:39:38;10.10;99.90
49441;DHT22;35317;51.978;6.296;2022-12-29T06:44:38;10.10;99.90
49441;DHT22;35317;51.978;6.296;2022-12-29T06:49:39;10.00;99.90
49441;DHT22;35317;51.978;6.296;2022-12-29T06:54:40;10.00;99.90
49441;DHT22;35317;51.978;6.296;2022-12-29T06:59:41;10.00;99.90
49441;DHT22;35317;51.978;6.296;2022-12-29T07:04:42;10.00;99.90
49441;DHT22;35317;51.978;6.296;2022-12-29T07:09:43;10.00;99.90
49441;DHT22;35317;51.978;6.296;2022-12-29T07:14:43;10.00;99.90
49441;DHT22;35317;51.978;6.296;2022-12-29T07:19:44;10.10;99.90
49441;DHT22;35317;51.978;6.296;2022-12-29T07:24:45;10.20;99.90
49441;DHT22;35317;51.978;6.296;2022-12-29T07:29:46;10.20;99.90
49441;DHT22;35317;51.978;6.296;2022-12-29T07:34:47;10.30;99.90
49441;DHT22;35317;51.978;6.296;2022-12-29T07:39:47;10.30;99.90
49441;DHT22;35317;51.978;6.296;2022-12-29T07:44:51;10.40;99.90
49441;DHT22;35317;51.978;6.296;2022-12-29T07:49:55;10.40;99.90
49441;DHT22;35317;51.978;6.296;2022-12-29T07:54:56;10.50;99.90
49441;DHT22;35317;51.978;6.296;2022-12-29T07:59:56;10.50;99.90
49441;DHT22;35317;51.978;6.296;2022-12-29T08:04:57;10.60;99.90
49441;DHT22;35317;51.978;6.296;2022-12-29T08:09:58;10.70;99.90
49441;DHT22;35317;51.978;6.296;2022-12-29T08:14:59;10.70;99.60
49441;DHT22;35317;51.978;6.296;2022-12-29T08:20:00;10.80;99.20
49441;DHT22;35317;51.978;6.296;2022-12-29T08:25:02;10.90;98.90
49441;DHT22;35317;51.978;6.296;2022-12-29T08:30:03;10.90;98.40
49441;DHT22;35317;51.978;6.296;2022-12-29T08:35:05;10.80;98.30
49441;DHT22;35317;51.978;6.296;2022-12-29T08:40:06;10.80;98.10
49441;DHT22;35317;51.978;6.296;2022-12-29T08:45:09;10.70;98.10
49441;DHT22;35317;51.978;6.296;2022-12-29T08:50:10;10.80;98.00
49441;DHT22;35317;51.978;6.296;2022-12-29T08:55:11;10.80;97.60
49441;DHT22;35317;51.978;6.296;2022-12-29T09:00:12;10.90;97.40
49441;DHT22;35317;51.978;6.296;2022-12-29T09:05:15;10.80;97.60
49441;DHT22;35317;51.978;6.296;2022-12-29T09:10:16;10.90;97.60
49441;DHT22;35317;51.978;6.296;2022-12-29T09:15:17;11.00;97.60
49441;DHT22;35317;51.978;6.296;2022-12-29T09:20:19;11.10;97.60
49441;DHT22;35317;51.978;6.296;2022-12-29T09:25:20;11.10;97.40
49441;DHT22;35317;51.978;6.296;2022-12-29T09:30:24;11.20;97.20
49441;DHT22;35317;51.978;6.296;2022-12-29T09:35:25;11.20;96.80
49441;DHT22;35317;51.978;6.296;2022-12-29T09:40:31;11.20;96.50
49441;DHT22;35317;51.978;6.296;2022-12-29T09:45:42;11.20;97.20
49441;DHT22;35317;51.978;6.296;2022-12-29T09:50:50;11.00;97.80
49441;DHT22;35317;51.978;6.296;2022-12-29T09:55:57;10.90;98.20
49441;DHT22;35317;51.978;6.296;2022-12-29T10:06:26;11.00;98.30
49441;DHT22;35317;51.978;6.296;2022-12-29T10:11:50;11.00;98.20
49441;DHT22;35317;51.978;6.296;2022-12-29T10:23:23;11.10;98.10
49441;DHT22;35317;51.978;6.296;2022-12-29T10:28:52;11.10;98.10
49441;DHT22;35317;51.978;6.296;2022-12-29T10:33:58;11.10;98.30
49441;DHT22;35317;51.978;6.296;2022-12-29T10:39:28;11.10;98.30
49441;DHT22;35317;51.978;6.296;2022-12-29T10:44:32;11.10;98.50
49441;DHT22;35317;51.978;6.296;2022-12-29T10:49:39;11.10;98.60
49441;DHT22;35317;51.978;6.296;2022-12-29T10:54:51;11.00;98.90
49441;DHT22;35317;51.978;6.296;2022-12-29T11:00:19;10.90;99.40
49441;DHT22;35317;51.978;6.296;2022-12-29T11:05:37;10.80;99.80
49441;DHT22;35317;51.978;6.296;2022-12-29T11:10:44;10.80;99.90
49441;DHT22;35317;51.978;6.296;2022-12-29T11:15:48;10.80;99.90
49441;DHT22;35317;51.978;6.296;2022-12-29T11:20:56;10.90;99.90
49441;DHT22;35317;51.978;6.296;2022-12-29T11:31:18;10.90;99.90
49441;DHT22;35317;51.978;6.296;2022-12-29T11:36:23;11.00;99.90
49441;DHT22;35317;51.978;6.296;2022-12-29T11:41:26;11.10;99.90
49441;DHT22;35317;51.978;6.296;2022-12-29T11:46:34;11.20;99.90
49441;DHT22;35317;51.978;6.296;2022-12-29T11:51:41;11.20;99.90
49441;DHT22;35317;51.978;6.296;2022-12-29T11:56:46;11.10;99.80
49441;DHT22;35317;51.978;6.296;2022-12-29T12:01:47;11.10;99.90
49441;DHT22;35317;51.978;6.296;2022-12-29T12:07:22;11.20;99.80
49441;DHT22;35317;51.978;6.296;2022-12-29T12:12:32;11.20;99.70
49441;DHT22;35317;51.978;6.296;2022-12-29T12:17:44;11.30;99.60
49441;DHT22;35317;51.978;6.296;2022-12-29T12:28:25;11.30;99.30
49441;DHT22;35317;51.978;6.296;2022-12-29T12:33:30;11.30;99.10
49441;DHT22;35317;51.978;6.296;2022-12-29T12:38:40;11.30;98.50
49441;DHT22;35317;51.978;6.296;2022-12-29T12:44:04;11.30;98.50
49441;DHT22;35317;51.978;6.296;2022-12-29T13:00:17;11.40;98.20
49441;DHT22;35317;51.978;6.296;2022-12-29T13:05:38;11.40;98.10
49441;DHT22;35317;51.978;6.296;2022-12-29T13:26:52;11.30;98.00
49441;DHT22;35317;51.978;6.296;2022-12-29T13:37:31;11.30;98.00
49441;DHT22;35317;51.978;6.296;2022-12-29T13:42:34;11.30;98.10
49441;DHT22;35317;51.978;6.296;2022-12-29T13:47:56;11.40;98.00
49441;DHT22;35317;51.978;6.296;2022-12-29T14:04:30;11.40;97.80
49441;DHT22;35317;51.978;6.296;2022-12-29T14:09:45;11.30;97.60
49441;DHT22;35317;51.978;6.296;2022-12-29T14:20:21;11.30;97.10
49441;DHT22;35317;51.978;6.296;2022-12-29T14:26:00;11.20;96.80
49441;DHT22;35317;51.978;6.296;2022-12-29T14:36:34;11.20;97.20
49441;DHT22;35317;51.978;6.296;2022-12-29T14:42:06;11.00;97.70
49441;DHT22;35317;51.978;6.296;2022-12-29T14:47:40;10.80;98.20
49441;DHT22;35317;51.978;6.296;2022-12-29T14:52:45;10.70;98.30
49441;DHT22;35317;51.978;6.296;2022-12-29T14:57:58;10.60;98.30
49441;DHT22;35317;51.978;6.296;2022-12-29T15:03:08;10.50;99.00
49441;DHT22;35317;51.978;6.296;2022-12-29T15:08:19;10.30;99.40
49441;DHT22;35317;51.978;6.296;2022-12-29T15:13:32;10.20;99.80
49441;DHT22;35317;51.978;6.296;2022-12-29T15:18:35;10.20;99.90
49441;DHT22;35317;51.978;6.296;2022-12-29T15:23:42;10.10;99.90
49441;DHT22;35317;51.978;6.296;2022-12-29T15:28:45;10.10;99.90
49441;DHT22;35317;51.978;6.296;2022-12-29T15:33:54;10.10;99.90
49441;DHT22;35317;51.978;6.296;2022-12-29T15:39:20;10.10;99.90
49441;DHT22;35317;51.978;6.296;2022-12-29T15:44:42;10.10;99.90
49441;DHT22;35317;51.978;6.296;2022-12-29T15:49:47;10.00;99.90
49441;DHT22;35317;51.978;6.296;2022-12-29T15:54:51;10.00;99.90
49441;DHT22;35317;51.978;6.296;2022-12-29T15:59:53;10.00;99.90
49441;DHT22;35317;51.978;6.296;2022-12-29T16:04:54;9.90;99.90
49441;DHT22;35317;51.978;6.296;2022-12-29T16:09:57;9.90;99.90
49441;DHT22;35317;51.978;6.296;2022-12-29T16:15:00;9.80;99.90
49441;DHT22;35317;51.978;6.296;2022-12-29T16:20:21;9.80;99.90
49441;DHT22;35317;51.978;6.296;2022-12-29T16:25:28;9.80;99.90
49441;DHT22;35317;51.978;6.296;2022-12-29T16:30:32;9.80;99.90
49441;DHT22;35317;51.978;6.296;2022-12-29T16:51:32;9.80;99.90
49441;DHT22;35317;51.978;6.296;2022-12-29T16:56:35;9.80;99.90
49441;DHT22;35317;51.978;6.296;2022-12-29T17:01:37;9.70;99.90
49441;DHT22;35317;51.978;6.296;2022-12-29T17:06:39;9.70;99.90
49441;DHT22;35317;51.978;6.296;2022-12-29T17:11:40;9.60;99.90
49441;DHT22;35317;51.978;6.296;2022-12-29T17:16:58;9.60;99.90
49441;DHT22;35317;51.978;6.296;2022-12-29T17:22:01;9.50;99.90
49441;DHT22;35317;51.978;6.296;2022-12-29T17:27:03;9.40;99.90
49441;DHT22;35317;51.978;6.296;2022-12-29T17:32:06;9.30;99.90
49441;DHT22;35317;51.978;6.296;2022-12-29T17:42:23;9.20;99.90
49441;DHT22;35317;51.978;6.296;2022-12-29T17:47:24;9.20;99.90
49441;DHT22;35317;51.978;6.296;2022-12-29T17:52:25;9.20;99.90
49441;DHT22;35317;51.978;6.296;2022-12-29T17:57:26;9.10;99.90
49441;DHT22;35317;51.978;6.296;2022-12-29T18:02:29;9.10;99.90
49441;DHT22;35317;51.978;6.296;2022-12-29T18:07:31;8.90;99.90
49441;DHT22;35317;51.978;6.296;2022-12-29T18:12:41;8.80;99.90
49441;DHT22;35317;51.978;6.296;2022-12-29T18:17:44;8.70;99.90
49441;DHT22;35317;51.978;6.296;2022-12-29T18:22:45;8.70;99.90
49441;DHT22;35317;51.978;6.296;2022-12-29T18:27:45;8.60;99.90
49441;DHT22;35317;51.978;6.296;2022-12-29T18:32:47;8.50;99.90
49441;DHT22;35317;51.978;6.296;2022-12-29T18:37:47;8.50;99.90
49441;DHT22;35317;51.978;6.296;2022-12-29T18:42:48;8.40;99.90
49441;DHT22;35317;51.978;6.296;2022-12-29T18:47:49;8.40;99.90
49441;DHT22;35317;51.978;6.296;2022-12-29T18:52:50;8.30;99.90
49441;DHT22;35317;51.978;6.296;2022-12-29T18:57:51;8.30;99.90
49441;DHT22;35317;51.978;6.296;2022-12-29T19:02:52;8.30;99.90
49441;DHT22;35317;51.978;6.296;2022-12-29T19:07:53;8.40;99.90
49441;DHT22;35317;51.978;6.296;2022-12-29T19:12:55;8.40;99.90
49441;DHT22;35317;51.978;6.296;2022-12-29T19:17:58;8.40;99.90
49441;DHT22;35317;51.978;6.296;2022-12-29T19:23:01;8.30;99.90
49441;DHT22;35317;51.978;6.296;2022-12-29T19:28:05;8.30;99.90
49441;DHT22;35317;51.978;6.296;2022-12-29T19:33:06;8.20;99.90
49441;DHT22;35317;51.978;6.296;2022-12-29T19:38:10;8.10;99.90
49441;DHT22;35317;51.978;6.296;2022-12-29T19:43:15;8.10;99.90
49441;DHT22;35317;51.978;6.296;2022-12-29T19:48:19;8.10;99.90
49441;DHT22;35317;51.978;6.296;2022-12-29T19:53:20;8.10;99.90
49441;DHT22;35317;51.978;6.296;2022-12-29T19:58:20;8.00;99.90
49441;DHT22;35317;51.978;6.296;2022-12-29T20:03:21;8.00;99.90
49441;DHT22;35317;51.978;6.296;2022-12-29T20:08:22;8.00;99.90
49441;DHT22;35317;51.978;6.296;2022-12-29T20:13:25;8.00;99.90
49441;DHT22;35317;51.978;6.296;2022-12-29T20:18:27;8.00;99.90
49441;DHT22;35317;51.978;6.296;2022-12-29T20:23:34;8.00;99.90
49441;DHT22;35317;51.978;6.296;2022-12-29T20:28:36;8.00;99.90
49441;DHT22;35317;51.978;6.296;2022-12-29T20:33:37;7.90;99.90
49441;DHT22;35317;51.978;6.296;2022-12-29T20:38:38;7.90;99.90
49441;DHT22;35317;51.978;6.296;2022-12-29T20:43:40;7.90;99.90
49441;DHT22;35317;51.978;6.296;2022-12-29T20:48:41;7.90;99.90
49441;DHT22;35317;51.978;6.296;2022-12-29T20:53:42;7.90;99.90
49441;DHT22;35317;51.978;6.296;2022-12-29T20:58:43;7.90;99.90
49441;DHT22;35317;51.978;6.296;2022-12-29T21:03:45;7.80;99.90
49441;DHT22;35317;51.978;6.296;2022-12-29T21:08:49;7.80;99.90
49441;DHT22;35317;51.978;6.296;2022-12-29T21:13:53;7.80;99.90
49441;DHT22;35317;51.978;6.296;2022-12-29T21:18:53;7.80;99.90
49441;DHT22;35317;51.978;6.296;2022-12-29T21:23:54;7.80;99.90
49441;DHT22;35317;51.978;6.296;2022-12-29T21:29:04;7.70;99.90
49441;DHT22;35317;51.978;6.296;2022-12-29T21:34:05;7.70;99.90
49441;DHT22;35317;51.978;6.296;2022-12-29T21:39:09;7.70;99.90
49441;DHT22;35317;51.978;6.296;2022-12-29T21:44:09;7.60;99.90
49441;DHT22;35317;51.978;6.296;2022-12-29T21:49:29;7.60;99.90
49441;DHT22;35317;51.978;6.296;2022-12-29T21:54:30;7.50;99.90
49441;DHT22;35317;51.978;6.296;2022-12-29T21:59:49;7.50;99.90
49441;DHT22;35317;51.978;6.296;2022-12-29T22:05:11;7.60;99.90
49441;DHT22;35317;51.978;6.296;2022-12-29T22:10:31;7.50;99.90
49441;DHT22;35317;51.978;6.296;2022-12-29T22:15:51;7.60;99.90
49441;DHT22;35317;51.978;6.296;2022-12-29T22:20:52;7.60;99.90
49441;DHT22;35317;51.978;6.296;2022-12-29T22:25:52;7.60;99.90
49441;DHT22;35317;51.978;6.296;2022-12-29T22:30:53;7.60;99.90
49441;DHT22;35317;51.978;6.296;2022-12-29T22:35:54;7.50;99.90
49441;DHT22;35317;51.978;6.296;2022-12-29T22:40:58;7.50;99.90
49441;DHT22;35317;51.978;6.296;2022-12-29T22:46:03;7.40;99.90
49441;DHT22;35317;51.978;6.296;2022-12-29T22:51:06;7.40;99.90
49441;DHT22;35317;51.978;6.296;2022-12-29T22:56:10;7.30;99.90
49441;DHT22;35317;51.978;6.296;2022-12-29T23:01:13;7.30;99.90
49441;DHT22;35317;51.978;6.296;2022-12-29T23:06:16;7.20;99.90
49441;DHT22;35317;51.978;6.296;2022-12-29T23:11:17;7.20;99.90
49441;DHT22;35317;51.978;6.296;2022-12-29T23:16:18;7.20;99.90
49441;DHT22;35317;51.978;6.296;2022-12-29T23:21:19;7.20;99.90
49441;DHT22;35317;51.978;6.296;2022-12-29T23:26:29;7.30;99.90
49441;DHT22;35317;51.978;6.296;2022-12-29T23:31:35;7.40;99.90
49441;DHT22;35317;51.978;6.296;2022-12-29T23:36:37;7.50;99.90
49441;DHT22;35317;51.978;6.296;2022-12-29T23:41:38;7.50;99.90
49441;DHT22;35317;51.978;6.296;2022-12-29T23:46:40;7.50;99.90
49441;DHT22;35317;51.978;6.296;2022-12-29T23:51:41;7.40;99.90
49441;DHT22;35317;51.978;6.296;2022-12-29T23:56:42;7.40;99.90
